createdAt,value
2022-11-20T00:00:30.672Z,59.400000
2022-11-20T00:05:36.192Z,61.733333
2022-11-20T00:10:18.861Z,64.400000
2022-11-20T00:15:22.658Z,65.000000
2022-11-20T00:20:25.301Z,66.000000
2022-11-20T00:25:29.820Z,66.266667
2022-11-20T00:30:32.296Z,67.000000
2022-11-20T00:35:16.410Z,67.333333
2022-11-20T00:40:18.800Z,68.200000
2022-11-20T00:45:22.291Z,69.000000
2022-11-20T00:50:25.820Z,69.000000
2022-11-20T00:55:28.377Z,69.000000
2022-11-20T01:00:31.264Z,69.000000
2022-11-20T01:05:34.202Z,69.066667
2022-11-20T01:10:16.512Z,70.533333
2022-11-20T01:15:20.651Z,71.000000
2022-11-20T01:20:23.575Z,70.857143
2022-11-20T01:25:26.595Z,70.266667
2022-11-20T01:30:28.932Z,70.200000
2022-11-20T01:35:31.680Z,70.000000
2022-11-20T01:40:34.481Z,69.400000
2022-11-20T01:45:16.975Z,68.800000
2022-11-20T01:50:19.476Z,68.200000
2022-11-20T01:55:23.437Z,68.428571
2022-11-20T02:00:25.103Z,67.933333
2022-11-20T02:05:29.626Z,67.866667
2022-11-20T02:10:32.454Z,69.000000
2022-11-20T02:15:35.659Z,70.000000
2022-11-20T02:20:19.065Z,71.000000
2022-11-20T02:25:22.535Z,72.285714
2022-11-20T02:30:26.418Z,74.066667
2022-11-20T02:35:27.775Z,75.800000
2022-11-20T02:40:30.781Z,77.000000
2022-11-20T02:45:33.748Z,78.000000
2022-11-20T02:50:17.355Z,79.000000
2022-11-20T02:55:21.747Z,79.933333
2022-11-20T03:00:23.185Z,80.000000
2022-11-20T03:05:26.783Z,79.266667
2022-11-20T03:10:31.639Z,79.666667
2022-11-20T03:15:33.793Z,79.000000
2022-11-20T03:20:16.579Z,78.066667
2022-11-20T03:25:19.372Z,77.533333
2022-11-20T03:30:27.555Z,77.000000
2022-11-20T03:35:25.217Z,77.000000
2022-11-20T03:40:28.172Z,77.866667
2022-11-20T03:45:31.805Z,78.000000
2022-11-20T03:50:35.571Z,78.200000
2022-11-20T03:55:17.104Z,79.066667
2022-11-20T04:00:21.135Z,80.000000
2022-11-20T04:05:23.106Z,80.714286
2022-11-20T04:10:26.560Z,81.000000
2022-11-20T04:15:32.310Z,81.000000
2022-11-20T04:20:34.916Z,80.333333
2022-11-20T04:25:36.003Z,80.000000
2022-11-20T04:30:18.784Z,80.000000
2022-11-20T04:35:23.027Z,80.000000
2022-11-20T04:40:25.177Z,80.642857
2022-11-20T04:45:27.746Z,81.066667
2022-11-20T04:50:31.197Z,82.000000
2022-11-20T04:55:34.643Z,82.000000
2022-11-20T05:00:17.210Z,82.000000
2022-11-20T05:05:20.534Z,82.000000
2022-11-20T05:10:24.905Z,82.000000
2022-11-20T05:15:27.997Z,81.933333
2022-11-20T05:20:31.760Z,81.000000
2022-11-20T05:25:35.032Z,80.066667
2022-11-20T05:30:18.348Z,79.266667
2022-11-20T05:35:22.191Z,79.000000
2022-11-20T05:40:26.352Z,79.533333
2022-11-20T05:45:29.010Z,80.000000
2022-11-20T05:50:32.136Z,80.466667
2022-11-20T05:55:35.446Z,81.200000
2022-11-20T06:00:19.485Z,82.000000
2022-11-20T06:05:23.144Z,82.928571
2022-11-20T06:10:26.799Z,83.000000
2022-11-20T06:15:30.799Z,83.666667
2022-11-20T06:20:40.788Z,84.133333
2022-11-20T06:25:18.141Z,85.000000
2022-11-20T06:30:22.514Z,85.200000
2022-11-20T06:35:25.842Z,86.000000
2022-11-20T06:40:30.205Z,86.000000
2022-11-20T06:45:34.207Z,86.000000
2022-11-20T06:50:17.362Z,86.000000
2022-11-20T06:55:20.592Z,86.000000
2022-11-20T07:00:24.262Z,86.714286
2022-11-20T07:05:29.031Z,87.000000
2022-11-20T07:10:32.304Z,87.133333
2022-11-20T07:15:35.430Z,88.000000
2022-11-20T07:20:18.871Z,88.000000
2022-11-20T07:25:23.283Z,88.000000
2022-11-20T07:30:26.720Z,88.466667
2022-11-20T07:35:30.202Z,89.000000
2022-11-20T07:40:33.434Z,89.000000
2022-11-20T07:45:15.976Z,89.000000
2022-11-20T07:50:19.712Z,88.666667
2022-11-20T07:55:22.831Z,87.785714
2022-11-20T08:00:27.199Z,86.600000
2022-11-20T08:05:29.212Z,86.000000
2022-11-20T08:10:32.968Z,85.200000
2022-11-20T08:15:34.903Z,83.666667
2022-11-20T08:20:20.601Z,83.200000
2022-11-20T08:25:22.051Z,84.285714
2022-11-20T08:30:27.069Z,85.000000
2022-11-20T08:35:29.991Z,85.000000
2022-11-20T08:40:32.751Z,84.466667
2022-11-20T08:45:16.344Z,83.466667
2022-11-20T08:50:21.792Z,82.466667
2022-11-20T08:55:25.098Z,82.000000
2022-11-20T09:00:29.047Z,81.600000
2022-11-20T09:05:31.634Z,81.000000
2022-11-20T09:10:35.874Z,81.000000
2022-11-20T09:15:19.134Z,81.000000
2022-11-20T09:20:22.265Z,81.714286
2022-11-20T09:25:25.477Z,82.466667
2022-11-20T09:30:28.572Z,83.400000
2022-11-20T09:35:31.879Z,84.533333
2022-11-20T09:40:16.559Z,84.000000
2022-11-20T09:45:19.553Z,84.133333
2022-11-20T09:50:24.469Z,85.000000
2022-11-20T09:55:27.754Z,85.333333
2022-11-20T10:00:29.963Z,85.733333
2022-11-20T10:05:33.206Z,85.666667
2022-11-20T10:10:39.769Z,86.000000
2022-11-20T10:15:18.864Z,86.000000
2022-11-20T10:20:22.822Z,86.357143
2022-11-20T10:25:26.592Z,87.000000
2022-11-20T10:30:31.409Z,87.200000
2022-11-20T10:35:35.007Z,88.000000
2022-11-20T10:40:16.646Z,88.000000
2022-11-20T10:45:20.150Z,87.800000
2022-11-20T10:50:23.123Z,88.071429
2022-11-20T10:55:27.343Z,88.066667
2022-11-20T11:00:30.070Z,86.533333
2022-11-20T11:05:34.044Z,85.666667
2022-11-20T11:10:16.991Z,85.000000
2022-11-20T11:15:20.774Z,85.000000
2022-11-20T11:20:23.607Z,85.000000
2022-11-20T11:25:26.602Z,85.200000
2022-11-20T11:30:30.461Z,85.266667
2022-11-20T11:35:32.846Z,85.000000
2022-11-20T11:40:35.982Z,85.733333
2022-11-20T11:45:18.645Z,85.000000
2022-11-20T11:50:24.281Z,84.714286
2022-11-20T11:55:25.501Z,83.533333
2022-11-20T12:00:29.622Z,83.000000
2022-11-20T12:05:34.443Z,83.000000
2022-11-20T12:10:16.636Z,83.133333
2022-11-20T12:15:20.204Z,84.000000
2022-11-20T12:20:23.380Z,84.000000
2022-11-20T12:25:27.834Z,84.466667
2022-11-20T12:30:31.565Z,85.000000
2022-11-20T12:35:33.688Z,85.000000
2022-11-20T12:40:18.349Z,85.000000
2022-11-20T12:45:21.092Z,85.066667
2022-11-20T12:50:25.202Z,86.000000
2022-11-20T12:55:28.329Z,86.400000
2022-11-20T13:00:31.842Z,87.266667
2022-11-20T13:05:35.910Z,88.000000
2022-11-20T13:10:18.492Z,88.533333
2022-11-20T13:15:21.618Z,89.000000
2022-11-20T13:20:26.000Z,89.000000
2022-11-20T13:25:28.451Z,89.133333
2022-11-20T13:30:31.094Z,89.466667
2022-11-20T13:35:34.076Z,89.000000
2022-11-20T13:40:18.505Z,89.000000
2022-11-20T13:45:21.421Z,88.866667
2022-11-20T13:50:24.085Z,89.000000
2022-11-20T13:55:28.241Z,89.000000
2022-11-20T14:00:32.074Z,89.266667
2022-11-20T14:05:36.432Z,90.000000
2022-11-20T14:10:20.248Z,90.000000
2022-11-20T14:15:24.233Z,90.000000
2022-11-20T14:20:28.003Z,90.000000
2022-11-20T14:25:32.204Z,90.533333
2022-11-20T14:30:35.577Z,91.000000
2022-11-20T14:35:19.214Z,91.000000
2022-11-20T14:40:21.396Z,91.000000
2022-11-20T14:45:25.802Z,91.000000
2022-11-20T14:50:29.794Z,92.000000
2022-11-20T14:55:31.768Z,92.000000
2022-11-20T15:00:34.600Z,92.000000
2022-11-20T15:05:20.132Z,92.000000
2022-11-20T15:10:21.438Z,92.000000
2022-11-20T15:15:25.667Z,92.000000
2022-11-20T15:20:29.881Z,92.000000
2022-11-20T15:25:34.234Z,92.000000
2022-11-20T15:30:17.660Z,92.000000
2022-11-20T15:35:21.475Z,91.200000
2022-11-20T15:40:28.265Z,90.428571
2022-11-20T15:45:30.443Z,89.333333
2022-11-20T15:50:34.139Z,88.866667
2022-11-20T15:55:17.140Z,87.533333
2022-11-20T16:00:23.563Z,86.933333
2022-11-20T16:05:24.358Z,86.000000
2022-11-20T16:10:27.270Z,86.000000
2022-11-20T16:15:29.944Z,86.000000
2022-11-20T16:20:33.829Z,85.866667
2022-11-20T16:25:16.834Z,85.066667
2022-11-20T16:30:22.011Z,84.466667
2022-11-20T16:35:24.328Z,83.928571
2022-11-20T16:40:28.041Z,81.533333
2022-11-20T16:45:34.103Z,79.800000
2022-11-20T16:50:34.912Z,77.600000
2022-11-20T16:55:17.549Z,76.000000
2022-11-20T17:00:20.704Z,74.400000
2022-11-20T17:05:27.584Z,74.000000
2022-11-20T17:10:30.262Z,73.666667
2022-11-20T17:15:33.043Z,74.066667
2022-11-20T17:20:16.037Z,73.733333
2022-11-20T17:25:18.653Z,73.266667
2022-11-20T17:30:21.364Z,72.933333
2022-11-20T17:35:24.664Z,72.928571
2022-11-20T17:40:28.759Z,70.733333
2022-11-20T17:45:32.529Z,69.266667
2022-11-20T17:50:36.044Z,68.266667
2022-11-20T17:55:18.552Z,67.733333
2022-11-20T18:00:23.001Z,67.142857
2022-11-20T18:05:27.089Z,65.866667
2022-11-20T18:10:31.471Z,66.000000
2022-11-20T18:15:34.299Z,65.333333
2022-11-20T18:20:36.679Z,65.666667
2022-11-20T18:25:21.003Z,64.333333
2022-11-20T18:30:25.444Z,63.428571
2022-11-20T18:35:28.637Z,62.400000
2022-11-20T18:40:33.289Z,61.933333
2022-11-20T18:45:36.198Z,61.266667
2022-11-20T18:50:19.604Z,60.866667
2022-11-20T18:55:24.253Z,59.714286
2022-11-20T19:00:27.460Z,59.066667
2022-11-20T19:05:30.947Z,58.733333
2022-11-20T19:10:36.083Z,58.000000
2022-11-20T19:15:17.468Z,58.666667
2022-11-20T19:20:21.319Z,59.866667
2022-11-20T19:25:24.365Z,59.857143
2022-11-20T19:30:28.333Z,60.000000
2022-11-20T19:35:30.786Z,59.733333
2022-11-20T19:40:36.002Z,59.933333
2022-11-20T19:45:18.377Z,58.466667
2022-11-20T19:50:23.140Z,57.666667
2022-11-20T19:55:26.690Z,57.214286
2022-11-20T20:00:32.795Z,56.400000
2022-11-20T20:05:32.596Z,55.933333
2022-11-20T20:10:16.450Z,57.466667
2022-11-20T20:15:20.337Z,56.133333
2022-11-20T20:20:22.916Z,55.642857
2022-11-20T20:25:27.704Z,55.666667
2022-11-20T20:30:32.290Z,56.466667
2022-11-20T20:35:34.364Z,56.133333
2022-11-20T20:40:19.383Z,56.466667
2022-11-20T20:45:20.690Z,56.866667
2022-11-20T20:50:23.928Z,56.214286
2022-11-20T20:55:27.482Z,56.333333
2022-11-20T21:00:30.841Z,55.800000
2022-11-20T21:05:35.172Z,55.466667
2022-11-20T21:10:23.637Z,55.666667
2022-11-20T21:15:23.066Z,53.857143
2022-11-20T21:20:27.187Z,52.266667
2022-11-20T21:25:29.550Z,53.466667
2022-11-20T21:30:32.430Z,54.600000
2022-11-20T21:35:35.599Z,53.266667
2022-11-20T21:40:19.033Z,52.266667
2022-11-20T21:45:23.862Z,53.000000
2022-11-20T21:50:27.121Z,54.133333
2022-11-20T21:55:30.656Z,53.533333
2022-11-20T22:00:33.559Z,53.800000
2022-11-20T22:05:16.784Z,52.666667
2022-11-20T22:10:22.145Z,52.285714
2022-11-20T22:15:53.513Z,53.266667
2022-11-20T22:20:29.638Z,53.800000
2022-11-20T22:25:32.734Z,53.866667
2022-11-20T22:30:17.347Z,54.200000
2022-11-20T22:35:21.550Z,54.600000
2022-11-20T22:40:24.740Z,53.928571
2022-11-20T22:45:28.547Z,53.933333
2022-11-20T22:50:31.867Z,53.866667
2022-11-20T22:55:16.495Z,54.133333
2022-11-20T23:00:18.975Z,54.600000
2022-11-20T23:05:25.066Z,55.571429
2022-11-20T23:10:26.440Z,56.533333
2022-11-20T23:15:34.045Z,56.466667
2022-11-20T23:20:35.557Z,57.800000
2022-11-20T23:25:19.291Z,58.000000
2022-11-20T23:30:20.971Z,58.733333
2022-11-20T23:35:25.535Z,59.000000
2022-11-20T23:40:27.505Z,59.000000
2022-11-20T23:45:31.649Z,59.533333
2022-11-20T23:50:34.741Z,60.800000
2022-11-20T23:55:18.485Z,61.466667
